Time;durP1;ratioP1;P1;durP2;ratioP2;P2;SDS_P1;SDS_P2;PMS_P1;PMS_P2;Temp;Humidity;BMP_temperature;BMP_pressure;BME280_temperature;BME280_humidity;BME280_pressure;Samples;Min_cycle;Max_cycle;Signal;HPM_P1;HPM_P2
2022/04/10 00:00:39;;;;;;;6.25;2.75;;;;;;;7.25;54.33;99277.28;4484783;32;34336;-80
2022/04/10 00:03:07;;;;;;;4.97;2.70;;;;;;;7.49;53.71;99282.28;4471666;32;33407;-78
2022/04/10 00:05:41;;;;;;;4.75;2.55;;;;;;;7.18;55.13;99279.09;4472119;32;32313;-77
2022/04/10 00:08:11;;;;;;;4.82;2.45;;;;;;;7.28;54.77;99268.69;4472089;32;35294;-78
2022/04/10 00:10:41;;;;;;;6.53;2.90;;;;;;;7.45;54.81;99263.78;4472457;32;34590;-77
2022/04/10 00:13:10;;;;;;;5.12;2.65;;;;;;;7.34;55.53;99256.97;4471249;32;33203;-77
2022/04/10 00:15:38;;;;;;;5.97;2.80;;;;;;;7.49;55.32;99265.06;4471647;32;33640;-77
2022/04/10 00:18:06;;;;;;;5.50;3.03;;;;;;;7.76;54.82;99264.19;4472479;32;34916;-78
2022/04/10 00:20:34;;;;;;;7.32;3.17;;;;;;;6.99;56.51;99257.97;4459322;32;34173;-77
2022/04/10 00:23:02;;;;;;;4.53;2.75;;;;;;;7.56;55.09;99255.88;4472242;32;33315;-77
2022/04/10 00:25:33;;;;;;;7.37;3.03;;;;;;;7.60;54.75;99259.91;4472404;32;33838;-77
2022/04/10 00:28:04;;;;;;;6.32;2.80;;;;;;;7.28;55.50;99263.22;4459877;32;32936;-77
2022/04/10 00:30:32;;;;;;;5.93;2.72;;;;;;;7.74;54.46;99262.72;4471931;32;34183;-77
2022/04/10 00:33:00;;;;;;;5.85;3.15;;;;;;;7.93;53.81;99267.41;4486280;32;33275;-77
2022/04/10 00:35:28;;;;;;;6.00;3.00;;;;;;;7.72;53.87;99276.56;4472313;32;33826;-77
2022/04/10 00:37:58;;;;;;;5.62;2.70;;;;;;;7.43;54.50;99263.13;4472266;32;34468;-77
2022/04/10 00:40:25;;;;;;;6.07;2.95;;;;;;;7.92;53.98;99258.38;4472225;32;33865;-77
2022/04/10 00:42:55;;;;;;;5.65;2.70;;;;;;;7.46;55.01;99268.19;4472450;32;34013;-77
2022/04/10 00:45:23;;;;;;;5.28;2.58;;;;;;;7.46;55.31;99265.47;4472090;32;33599;-77
2022/04/10 00:47:51;;;;;;;6.57;2.70;;;;;;;7.82;54.44;99265.25;4459214;32;33361;-77
2022/04/10 00:50:20;;;;;;;5.70;2.58;;;;;;;7.58;54.90;99281.09;4471747;32;33963;-77
2022/04/10 00:52:50;;;;;;;6.53;2.85;;;;;;;7.47;55.24;99272.62;4459282;32;33134;-77
2022/04/10 00:55:22;;;;;;;5.62;2.72;;;;;;;7.79;54.75;99276.63;4471251;32;33200;-78
2022/04/10 00:57:50;;;;;;;5.40;2.67;;;;;;;7.65;54.80;99291.22;4471218;32;34510;-77
2022/04/10 01:00:18;;;;;;;4.78;2.83;;;;;;;7.44;55.42;99294.84;4457884;32;32455;-77
2022/04/10 01:02:45;;;;;;;6.70;2.90;;;;;;;7.00;57.20;99303.31;4471134;32;33237;-77
2022/04/10 01:05:13;;;;;;;5.78;3.10;;;;;;;7.32;56.24;99304.62;4458828;32;34601;-76
2022/04/10 01:07:41;;;;;;;4.80;2.85;;;;;;;7.21;56.74;99315.03;4486226;32;34226;-78
2022/04/10 01:10:09;;;;;;;5.35;3.03;;;;;;;7.09;57.12;99315.78;4459058;32;32624;-78
2022/04/10 01:12:37;;;;;;;4.97;2.87;;;;;;;7.36;56.42;99323.13;4472074;32;33334;-78
2022/04/10 01:15:05;;;;;;;7.18;3.10;;;;;;;7.06;57.47;99317.03;4459118;32;33762;-78
2022/04/10 01:17:33;;;;;;;6.50;3.00;;;;;;;6.23;59.57;99321.13;4471812;32;35152;-77
2022/04/10 01:20:01;;;;;;;6.22;3.30;;;;;;;7.12;57.50;99320.84;4471745;32;34594;-77
2022/04/10 01:22:33;;;;;;;5.87;3.03;;;;;;;6.51;58.78;99323.13;4472244;32;33153;-77
2022/04/10 01:25:06;;;;;;;5.80;3.05;;;;;;;6.91;57.71;99324.41;4471985;32;34442;-77
2022/04/10 01:27:36;;;;;;;6.03;3.05;;;;;;;6.92;57.67;99317.94;4471857;32;32911;-78
2022/04/10 01:30:05;;;;;;;7.03;2.80;;;;;;;7.20;57.25;99321.53;4472376;32;34001;-78
2022/04/10 01:32:33;;;;;;;5.97;3.20;;;;;;;7.34;56.45;99332.56;4471939;32;34099;-77
2022/04/10 01:35:03;;;;;;;5.50;3.12;;;;;;;7.13;56.80;99333.44;4471843;32;33373;-77
2022/04/10 01:37:31;;;;;;;6.10;3.30;;;;;;;7.17;56.83;99340.19;4459015;32;34425;-78
2022/04/10 01:39:59;;;;;;;26.20;16.80;;;;;;;6.69;57.98;99342.62;4471865;32;33889;-76
2022/04/10 01:42:28;;;;;;;15.85;7.75;;;;;;;6.77;57.91;99342.53;4459381;32;34469;-77
2022/04/10 01:44:59;;;;;;;6.97;3.50;;;;;;;6.57;58.29;99345.03;4472031;32;34529;-77
2022/04/10 01:47:27;;;;;;;6.95;3.40;;;;;;;6.14;59.74;99344.06;4458700;32;33185;-77
2022/04/10 01:49:56;;;;;;;5.85;2.90;;;;;;;6.77;57.82;99345.25;4467131;32;32456;-77
2022/04/10 01:52:23;;;;;;;6.12;3.00;;;;;;;6.54;58.20;99342.69;4484500;32;34157;-78
2022/04/10 01:54:56;;;;;;;5.22;2.85;;;;;;;6.64;58.08;99349.72;4471794;32;31901;-77
2022/04/10 01:57:25;;;;;;;6.00;2.97;;;;;;;6.92;57.32;99347.94;4485732;32;34494;-77
2022/04/10 01:59:53;;;;;;;5.32;2.80;;;;;;;6.70;57.91;99333.44;4471935;32;34409;-77
2022/04/10 02:02:21;;;;;;;4.40;2.62;;;;;;;7.05;57.22;99336.31;4484263;32;33201;-77
2022/04/10 02:04:51;;;;;;;5.03;2.65;;;;;;;6.58;58.26;99343.97;4483783;32;33997;-77
2022/04/10 02:07:19;;;;;;;5.72;2.80;;;;;;;6.58;57.86;99343.97;4485042;32;34315;-77
2022/04/10 02:09:47;;;;;;;6.57;3.28;;;;;;;6.51;58.33;99348.50;4484534;32;34569;-77
2022/04/10 02:12:16;;;;;;;6.47;3.05;;;;;;;6.59;58.32;99347.56;4471581;32;32097;-77
2022/04/10 02:14:44;;;;;;;6.93;3.20;;;;;;;6.74;57.84;99350.25;4484429;32;34481;-77
2022/04/10 02:17:11;;;;;;;5.68;2.90;;;;;;;6.53;58.07;99348.31;4458810;32;32869;-77
2022/04/10 02:19:39;;;;;;;6.03;2.90;;;;;;;6.74;57.91;99348.38;4484506;32;33956;-77
2022/04/10 02:22:06;;;;;;;4.95;2.67;;;;;;;6.57;58.47;99350.47;4484529;32;33422;-77
2022/04/10 02:24:34;;;;;;;8.80;2.90;;;;;;;6.79;57.52;99362.25;4471487;32;34317;-78
2022/04/10 02:27:04;;;;;;;7.07;2.95;;;;;;;6.75;57.44;99362.84;4484487;32;35202;-77
2022/04/10 02:29:32;;;;;;;5.25;2.65;;;;;;;6.97;57.43;99361.00;4484501;32;34027;-77
2022/04/10 02:32:00;;;;;;;4.50;2.55;;;;;;;6.93;57.28;99369.56;4471556;32;33363;-77
2022/04/10 02:34:28;;;;;;;6.05;2.95;;;;;;;6.99;56.86;99369.81;4485692;31;33592;-77
2022/04/10 02:36:58;;;;;;;4.87;2.80;;;;;;;7.11;56.78;99371.00;4474388;31;34513;-77
2022/04/10 02:39:27;;;;;;;6.55;3.03;;;;;;;7.06;56.59;99370.75;4473988;31;32549;-77
2022/04/10 02:41:54;;;;;;;5.62;2.80;;;;;;;6.71;57.39;99367.84;4473683;31;33659;-77
2022/04/10 02:44:22;;;;;;;5.62;3.05;;;;;;;6.31;58.76;99371.13;4486900;31;33404;-77
2022/04/10 02:46:50;;;;;;;6.30;3.05;;;;;;;6.84;57.47;99367.16;4486933;31;34435;-77
2022/04/10 02:49:18;;;;;;;6.37;3.00;;;;;;;6.39;58.24;99362.84;4460993;31;32544;-77
2022/04/10 02:51:55;;;;;;;4.60;2.40;;;;;;;6.55;58.04;99376.22;4473899;31;31631;-77
2022/04/10 02:54:24;;;;;;;6.15;3.35;;;;;;;6.14;58.94;99375.91;4472924;31;33514;-78
2022/04/10 02:57:11;;;;;;;5.03;2.75;;;;;;;6.57;57.68;99377.72;4500934;31;35280;-77
2022/04/10 02:59:57;;;;;;;6.10;3.35;;;;;;;6.34;57.78;99378.94;4488836;31;34975;-77
2022/04/10 03:02:43;;;;;;;7.25;3.03;;;;;;;5.94;59.48;99381.94;4488660;31;34978;-77
2022/04/10 03:05:30;;;;;;;5.57;3.00;;;;;;;6.09;59.10;99391.97;4488626;31;34496;-77
2022/04/10 03:08:17;;;;;;;8.52;3.10;;;;;;;5.70;60.75;99403.09;4488566;31;36319;-76
2022/04/10 03:11:04;;;;;;;6.20;3.05;;;;;;;6.06;59.70;99406.81;4477742;31;35693;-79
2022/04/10 03:13:53;;;;;;;6.82;3.40;;;;;;;5.79;59.74;99410.16;4477236;31;33945;-77
2022/04/10 03:16:45;;;;;;;6.03;3.40;;;;;;;5.98;59.81;99414.25;4488433;31;35497;-77
2022/04/10 03:19:31;;;;;;;7.22;3.20;;;;;;;5.89;60.23;99416.19;4477108;31;35308;-78
2022/04/10 03:22:17;;;;;;;5.70;3.05;;;;;;;5.78;60.26;99425.66;4477175;31;34765;-77
2022/04/10 03:25:05;;;;;;;7.25;3.10;;;;;;;5.93;59.87;99431.97;4478362;31;34301;-77
2022/04/10 03:27:54;;;;;;;6.47;3.05;;;;;;;6.11;59.59;99436.22;4502612;31;34807;-77
2022/04/10 03:30:40;;;;;;;5.45;2.70;;;;;;;6.50;58.34;99425.88;4490457;31;35329;-77
2022/04/10 03:33:26;;;;;;;6.85;3.17;;;;;;;6.28;58.76;99432.31;4490709;31;35701;-77
2022/04/10 03:36:15;;;;;;;8.10;3.90;;;;;;;6.43;58.33;99444.06;4490650;31;35118;-77
2022/04/10 03:39:02;;;;;;;6.40;3.47;;;;;;;5.39;61.27;99447.59;4490912;31;34679;-77
2022/04/10 03:41:50;;;;;;;4.95;2.90;;;;;;;5.01;62.43;99446.69;4490612;31;36230;-78
2022/04/10 03:44:38;;;;;;;5.78;3.22;;;;;;;5.31;62.19;99447.66;4490717;31;35830;-77
2022/04/10 03:47:26;;;;;;;6.18;3.45;;;;;;;5.48;61.51;99456.53;4490520;31;35017;-77
2022/04/10 03:50:18;;;;;;;6.65;3.17;;;;;;;5.50;61.47;99458.03;4490546;31;34554;-77
2022/04/10 03:53:05;;;;;;;7.68;3.72;;;;;;;5.53;61.52;99465.00;4479137;31;36368;-78
2022/04/10 03:55:52;;;;;;;6.47;3.53;;;;;;;5.19;62.30;99463.56;4502426;31;34881;-77
2022/04/10 03:58:38;;;;;;;6.72;3.58;;;;;;;5.16;62.71;99469.38;4479390;31;35080;-77
2022/04/10 04:01:25;;;;;;;10.25;3.62;;;;;;;4.86;63.76;99473.78;4479309;31;34640;-77
2022/04/10 04:04:14;;;;;;;6.43;3.55;;;;;;;5.37;62.13;99468.69;4479543;31;35578;-77
2022/04/10 04:07:00;;;;;;;7.97;3.50;;;;;;;5.40;61.93;99478.38;4490135;31;34776;-77
2022/04/10 04:09:47;;;;;;;6.72;3.42;;;;;;;5.72;60.80;99471.84;4479319;31;35078;-77
2022/04/10 04:12:34;;;;;;;6.10;3.42;;;;;;;5.98;60.29;99474.16;4489996;31;34602;-77
2022/04/10 04:15:20;;;;;;;;;;;;;;;6.03;59.91;99478.03;4490457;31;35388;-77
2022/04/10 04:18:10;;;;;;;6.97;3.72;;;;;;;5.86;60.44;99487.34;4479407;31;35170;-78
2022/04/10 04:20:56;;;;;;;6.97;3.30;;;;;;;5.61;60.90;99482.13;4489263;31;35223;-76
2022/04/10 04:23:49;;;;;;;6.12;3.42;;;;;;;6.16;59.42;99489.13;4502290;31;34586;-77
2022/04/10 04:26:35;;;;;;;7.07;3.90;;;;;;;6.40;58.87;99492.66;4490306;31;35392;-78
2022/04/10 04:29:24;;;;;;;6.45;3.50;;;;;;;6.04;60.37;99495.22;4476078;32;35660;-76
2022/04/10 04:32:10;;;;;;;6.50;3.33;;;;;;;6.20;59.84;99490.47;4486464;32;34169;-77
2022/04/10 04:34:56;;;;;;;7.50;3.58;;;;;;;6.34;59.17;99487.94;4474475;32;34604;-77
2022/04/10 04:37:43;;;;;;;8.38;3.55;;;;;;;6.36;59.19;99499.50;4474529;32;36406;-77
2022/04/10 04:40:33;;;;;;;7.20;4.10;;;;;;;5.68;61.01;99505.91;4486199;32;34816;-77
2022/04/10 04:43:19;;;;;;;7.07;3.55;;;;;;;6.09;60.26;99509.12;4486274;32;34088;-76
2022/04/10 04:46:09;;;;;;;6.72;3.65;;;;;;;6.11;59.91;99496.16;4473810;32;34755;-78
2022/04/10 04:48:58;;;;;;;7.57;3.53;;;;;;;5.97;60.14;99507.88;4474130;32;36240;-77
2022/04/10 04:51:49;;;;;;;7.90;3.58;;;;;;;5.32;62.48;99495.59;4474442;32;34815;-77
2022/04/10 04:54:36;;;;;;;6.68;3.78;;;;;;;6.02;60.49;99505.44;4463723;32;34246;-77
2022/04/10 04:57:26;;;;;;;5.60;3.28;;;;;;;5.48;62.21;99516.41;4486206;32;34624;-77
2022/04/10 05:00:13;;;;;;;8.00;4.15;;;;;;;5.91;60.73;99523.06;4486189;32;35325;-77
2022/04/10 05:03:00;;;;;;;7.50;3.85;;;;;;;6.05;60.74;99527.72;4463541;32;34917;-77
2022/04/10 05:05:47;;;;;;;6.12;3.37;;;;;;;6.00;61.02;99526.56;4474429;32;34171;-77
2022/04/10 05:08:35;;;;;;;6.87;3.50;;;;;;;6.33;59.98;99529.84;4463909;32;34597;-78
2022/04/10 05:11:24;;;;;;;8.77;3.90;;;;;;;6.13;61.13;99538.53;4463207;32;35274;-77
2022/04/10 05:14:10;;;;;;;6.70;3.42;;;;;;;6.59;59.09;99533.81;4485604;32;35879;-77
2022/04/10 05:16:59;;;;;;;6.65;3.50;;;;;;;6.75;58.78;99540.12;4473420;32;34352;-77
2022/04/10 05:19:46;;;;;;;8.10;4.18;;;;;;;6.42;59.79;99545.09;4473557;32;34554;-76
2022/04/10 05:22:35;;;;;;;6.00;3.58;;;;;;;6.79;58.31;99527.78;4462731;32;35359;-77
2022/04/10 05:25:26;;;;;;;5.70;3.53;;;;;;;6.91;58.08;99538.03;4463096;32;34859;-76
2022/04/10 05:28:14;;;;;;;7.05;3.90;;;;;;;6.40;59.42;99545.28;4463155;32;34202;-77
2022/04/10 05:31:02;;;;;;;6.70;3.85;;;;;;;5.91;60.57;99558.47;4485838;32;35590;-76
2022/04/10 05:33:49;;;;;;;6.82;3.70;;;;;;;5.98;60.64;99561.31;4473759;32;35256;-76
2022/04/10 05:36:38;;;;;;;7.78;4.12;;;;;;;5.83;61.38;99563.97;4474050;32;35698;-77
2022/04/10 05:39:25;;;;;;;6.55;3.75;;;;;;;6.14;60.46;99561.19;4473828;32;33898;-76
2022/04/10 05:42:14;;;;;;;7.57;3.95;;;;;;;6.63;58.77;99567.00;4473907;32;35462;-77
2022/04/10 05:45:07;;;;;;;8.23;4.03;;;;;;;6.75;58.34;99564.66;4463119;32;35342;-76
2022/04/10 05:47:53;;;;;;;7.00;3.92;;;;;;;6.81;58.14;99566.63;4473319;32;35504;-76
2022/04/10 05:50:40;;;;;;;6.47;3.72;;;;;;;6.96;57.86;99567.47;4473832;32;35098;-77
2022/04/10 05:53:29;;;;;;;5.87;3.22;;;;;;;6.93;56.81;99576.03;4473908;32;35481;-76
2022/04/10 05:56:15;;;;;;;7.50;3.97;;;;;;;6.54;58.49;99579.00;4473880;32;35302;-74
2022/04/10 05:59:02;;;;;;;5.87;3.60;;;;;;;7.06;57.70;99568.03;4473777;32;35482;-77
2022/04/10 06:01:54;;;;;;;7.45;4.35;;;;;;;7.17;57.15;99583.06;4473340;32;35022;-76
2022/04/10 06:04:46;;;;;;;7.47;3.78;;;;;;;6.61;58.44;99583.53;4485313;32;34470;-77
2022/04/10 06:07:35;;;;;;;6.53;3.70;;;;;;;6.98;56.95;99580.94;4490987;31;35237;-77
2022/04/10 06:10:21;;;;;;;7.65;3.50;;;;;;;6.69;58.17;99598.13;4488124;31;35722;-77
2022/04/10 06:13:09;;;;;;;9.77;4.57;;;;;;;7.14;56.79;99592.50;4484697;31;34384;-77
2022/04/10 06:15:49;;;;;;;9.65;4.00;;;;;;;7.60;56.53;99586.75;4479587;31;32392;-77
2022/04/10 06:18:17;;;;;;;13.25;7.00;;;;;;;7.74;55.92;99591.34;4470235;31;34328;-77
2022/04/10 06:20:54;;;;;;;11.27;4.97;;;;;;;8.05;54.88;99591.00;4482523;31;34680;-77
2022/04/10 06:23:23;;;;;;;9.00;5.55;;;;;;;7.41;55.54;99603.75;4453763;31;32136;-76
2022/04/10 06:25:53;;;;;;;10.63;6.45;;;;;;;8.25;53.93;99597.53;4471163;31;34256;-77
2022/04/10 06:28:24;;;;;;;8.65;4.37;;;;;;;8.79;52.33;99599.66;4479363;31;34347;-75
2022/04/10 06:30:55;;;;;;;9.00;4.10;;;;;;;8.53;52.26;99597.56;4482465;31;34060;-76
2022/04/10 06:33:24;;;;;;;6.32;3.90;;;;;;;9.48;51.57;99594.12;4461332;31;31767;-76
2022/04/10 06:35:55;;;;;;;6.68;3.70;;;;;;;8.96;50.87;99607.56;4482457;31;33561;-76
2022/04/10 06:38:22;;;;;;;6.43;3.60;;;;;;;9.05;51.39;99614.56;4458731;31;32802;-76
2022/04/10 06:40:52;;;;;;;7.80;4.20;;;;;;;8.62;51.43;99614.69;4471887;31;33862;-76
2022/04/10 06:43:21;;;;;;;7.30;3.70;;;;;;;8.54;52.48;99612.09;4467193;31;33927;-76
2022/04/10 06:45:50;;;;;;;5.93;4.05;;;;;;;9.14;51.56;99616.91;4491022;31;33706;-77
2022/04/10 06:48:20;;;;;;;10.02;5.32;;;;;;;8.97;50.96;99623.78;4458105;31;32917;-76
2022/04/10 06:50:51;;;;;;;22.50;12.15;;;;;;;9.49;50.33;99612.28;4483493;31;33818;-77
2022/04/10 06:53:19;;;;;;;9.90;6.12;;;;;;;10.02;49.27;99619.81;4450022;31;31905;-77
2022/04/10 06:55:47;;;;;;;6.47;3.72;;;;;;;10.45;47.65;99621.16;4479814;32;32906;-77
2022/04/10 06:58:19;;;;;;;6.12;3.70;;;;;;;10.24;47.26;99621.38;4471041;31;32773;-78
2022/04/10 07:00:47;;;;;;;6.43;3.58;;;;;;;10.02;47.79;99631.62;4459052;31;33350;-77
2022/04/10 07:03:17;;;;;;;6.57;3.60;;;;;;;9.79;48.36;99631.12;4483774;31;33507;-78
2022/04/10 07:05:45;;;;;;;7.00;3.70;;;;;;;10.25;47.23;99630.44;4468407;31;32046;-77
2022/04/10 07:08:15;;;;;;;6.45;3.42;;;;;;;10.44;47.08;99643.31;4471044;31;34463;-76
2022/04/10 07:10:43;;;;;;;5.82;3.60;;;;;;;11.05;45.83;99626.66;4480975;31;33912;-77
2022/04/10 07:13:15;;;;;;;6.85;3.42;;;;;;;11.48;44.46;99641.53;4483609;31;31661;-76
2022/04/10 07:15:44;;;;;;;7.50;3.55;;;;;;;11.41;44.86;99637.13;4472349;32;34405;-76
2022/04/10 07:18:12;;;;;;;7.15;3.97;;;;;;;11.23;45.67;99640.53;4472645;32;34553;-77
2022/04/10 07:20:40;;;;;;;13.62;6.50;;;;;;;10.98;47.13;99645.03;4460096;32;33960;-76
2022/04/10 07:25:54;;;;;;;5.53;3.72;;;;;;;11.06;47.14;99658.50;4474948;32;33793;-76
2022/04/10 07:28:22;;;;;;;8.13;4.45;;;;;;;11.59;46.46;99640.03;4486958;32;34326;-77
2022/04/10 07:30:50;;;;;;;6.78;3.40;;;;;;;11.82;45.48;99645.00;4460297;32;33962;-77
2022/04/10 07:33:18;;;;;;;5.32;3.22;;;;;;;11.42;44.53;99639.66;4472993;32;33300;-77
2022/04/10 07:35:48;;;;;;;8.43;3.80;;;;;;;11.06;46.00;99653.03;4473163;32;33548;-77
2022/04/10 07:38:17;;;;;;;7.78;4.55;;;;;;;11.06;45.47;99653.88;4459756;32;33885;-77
2022/04/10 07:40:48;;;;;;;8.40;4.60;;;;;;;10.63;46.88;99666.34;4472833;32;34155;-77
2022/04/10 07:43:17;;;;;;;7.03;4.03;;;;;;;11.05;46.33;99657.66;4472895;32;33296;-77
2022/04/10 07:48:31;;;;;;;8.38;4.07;;;;;;;11.88;42.57;99658.75;4474811;32;34785;-77
2022/04/10 07:51:00;;;;;;;6.12;3.15;;;;;;;12.16;44.40;99654.81;4472929;32;34016;-77
2022/04/10 07:53:30;;;;;;;8.40;3.70;;;;;;;12.53;43.75;99664.06;4471872;32;32482;-78
2022/04/10 07:56:00;;;;;;;5.87;3.30;;;;;;;12.47;42.84;99665.81;4473393;31;34593;-77
2022/04/10 07:58:28;;;;;;;8.82;5.37;;;;;;;12.32;43.18;99653.44;4484124;31;33213;-77
2022/04/10 08:00:56;;;;;;;6.03;3.20;;;;;;;12.50;43.12;99672.78;4472241;31;34036;-78
2022/04/10 08:03:26;;;;;;;7.32;4.80;;;;;;;12.71;42.30;99679.84;4449349;31;31588;-77
2022/04/10 08:05:57;;;;;;;9.35;5.68;;;;;;;13.11;41.97;99678.44;4471223;32;33372;-77
2022/04/10 08:08:28;;;;;;;8.02;4.93;;;;;;;13.49;41.18;99678.31;4485293;31;35144;-77
2022/04/10 08:10:55;;;;;;;8.77;4.03;;;;;;;13.25;40.82;99673.66;4454648;32;32489;-77
2022/04/10 08:13:24;;;;;;;7.97;3.58;;;;;;;12.96;41.85;99683.47;4471711;31;31475;-77
2022/04/10 08:15:57;;;;;;;7.57;3.95;;;;;;;13.22;41.49;99678.78;4456512;32;31560;-77
2022/04/10 08:18:24;;;;;;;6.22;3.33;;;;;;;13.68;41.19;99681.06;4469847;32;34426;-77
2022/04/10 08:20:52;;;;;;;5.25;3.08;;;;;;;13.58;39.29;99684.38;4484906;31;33558;-77
2022/04/10 08:23:20;;;;;;;5.72;3.33;;;;;;;13.90;39.03;99671.25;4456685;32;32574;-78
2022/04/10 08:25:54;;;;;;;4.97;2.95;;;;;;;13.90;38.72;99678.69;4485283;31;33723;-78
2022/04/10 08:28:24;;;;;;;7.40;4.18;;;;;;;14.13;38.43;99678.81;4468143;31;35219;-78
2022/04/10 08:31:00;;;;;;;8.77;5.35;;;;;;;13.67;37.75;99684.88;4482482;31;34316;-78
2022/04/10 08:33:31;;;;;;;6.03;3.50;;;;;;;13.78;37.97;99684.97;4490541;31;33451;-78
2022/04/10 08:36:01;;;;;;;5.65;3.12;;;;;;;13.92;38.86;99676.53;4470433;32;33633;-78
2022/04/10 08:38:31;;;;;;;7.57;3.20;;;;;;;12.94;39.13;99695.78;4471568;32;34688;-78
2022/04/10 08:41:04;;;;;;;5.15;2.70;;;;;;;14.04;38.89;99675.53;4471732;32;33927;-78
2022/04/10 08:43:37;;;;;;;24.60;13.45;;;;;;;13.87;37.75;99673.63;4458229;32;34152;-77
2022/04/10 08:46:08;;;;;;;5.35;3.05;;;;;;;14.02;39.09;99688.72;4470803;31;32300;-78
2022/04/10 08:48:36;;;;;;;4.40;2.45;;;;;;;14.81;37.83;99693.12;4459579;31;33945;-77
2022/04/10 08:51:12;;;;;;;4.93;2.45;;;;;;;13.90;36.18;99692.47;4473954;31;34748;-78
2022/04/10 08:53:42;;;;;;;4.82;2.30;;;;;;;14.35;35.00;99692.94;4473898;31;33211;-78
2022/04/10 08:56:14;;;;;;;4.03;2.10;;;;;;;13.16;36.36;99700.66;4473665;31;33240;-78
2022/04/10 08:58:42;;;;;;;4.53;2.65;;;;;;;13.17;36.95;99698.75;4473877;31;34299;-79
2022/04/10 09:01:11;;;;;;;4.90;2.77;;;;;;;13.34;37.27;99702.63;4455521;31;105667;-79
2022/04/10 09:03:39;;;;;;;4.90;2.80;;;;;;;13.88;36.75;99691.88;4476850;31;34105;-79
2022/04/10 09:06:10;;;;;;;10.18;3.87;;;;;;;14.28;35.76;99693.06;4487574;31;33671;-77
2022/04/10 09:08:38;;;;;;;9.10;5.47;;;;;;;13.51;36.91;99695.47;4474508;31;33846;-79
2022/04/10 09:11:10;;;;;;;12.45;7.03;;;;;;;12.95;36.66;99702.97;4487558;31;33064;-77
2022/04/10 09:13:41;;;;;;;11.68;5.30;;;;;;;13.00;36.67;99705.91;4487903;31;34361;-78
2022/04/10 09:16:16;;;;;;;6.00;3.10;;;;;;;13.69;36.53;99702.03;4474905;31;34017;-78
2022/04/10 09:18:50;;;;;;;5.33;2.23;;;;;;;13.98;35.83;99692.16;4472398;31;33952;-77
2022/04/10 09:21:28;;;;;;;26.30;13.00;;;;;;;14.05;35.34;99699.28;4491171;31;34706;-77
2022/04/10 09:24:06;;;;;;;11.10;5.05;;;;;;;14.25;36.12;99690.75;4471937;31;33352;-78
2022/04/10 09:26:48;;;;;;;5.50;3.15;;;;;;;14.66;35.75;99684.44;4474589;31;32512;-78
2022/04/10 09:29:20;;;;;;;7.65;3.40;;;;;;;15.21;35.29;99681.41;4474683;31;34342;-78
2022/04/10 09:31:49;;;;;;;4.25;2.25;;;;;;;14.93;34.13;99695.94;4474877;31;34597;-78
2022/04/10 09:34:21;;;;;;;5.90;2.58;;;;;;;14.80;33.44;99694.22;4488144;31;33531;-79
2022/04/10 09:37:16;;;;;;;5.40;2.35;;;;;;;14.85;34.93;99703.72;4466220;31;32188;-78
2022/04/10 09:39:52;;;;;;;5.55;2.40;;;;;;;15.12;33.98;99700.25;4475349;31;33953;-79
2022/04/10 09:42:36;;;;;;;4.20;2.30;;;;;;;14.10;35.38;99707.72;4474858;31;33601;-78
2022/04/10 09:45:32;;;;;;;6.62;1.92;;;;;;;14.65;34.39;99707.62;4469166;31;31999;-76
2022/04/10 09:48:32;;;;;;;4.40;2.17;;;;;;;14.57;34.55;99707.09;4474964;31;32420;-74
2022/04/10 09:51:06;;;;;;;18.75;10.15;;;;;;;15.35;38.29;99721.56;4474204;31;32907;-75
2022/04/10 09:53:34;;;;;;;5.93;2.30;;;;;;;15.23;36.96;99712.44;4474120;31;32324;-74
2022/04/10 09:56:08;;;;;;;5.30;2.28;;;;;;;14.63;33.21;99719.97;4501586;31;33278;-75
2022/04/10 09:58:36;;;;;;;5.87;2.78;;;;;;;14.96;34.33;99708.41;4474882;31;34503;-74
2022/04/10 10:01:06;;;;;;;4.45;2.15;;;;;;;13.89;36.04;99699.91;4480594;32;35189;-74
2022/04/10 10:03:43;;;;;;;18.48;10.63;;;;;;;14.65;36.31;99710.38;4485653;31;33948;-74
2022/04/10 10:06:12;;;;;;;12.37;5.95;;;;;;;14.69;33.57;99719.03;4471758;32;34226;-75
2022/04/10 10:08:41;;;;;;;6.03;2.62;;;;;;;14.03;33.80;99704.19;4484040;32;33405;-76
2022/04/10 10:11:11;;;;;;;9.65;2.45;;;;;;;13.45;35.80;99715.69;4470601;32;35205;-75
2022/04/10 10:13:41;;;;;;;7.00;2.45;;;;;;;14.82;38.72;99702.28;4471157;32;32619;-74
2022/04/10 10:16:12;;;;;;;8.93;3.60;;;;;;;14.53;33.69;99703.97;4484732;32;34360;-75
2022/04/10 10:18:48;;;;;;;8.10;3.12;;;;;;;15.46;38.92;99689.47;4472474;31;32274;-75
2022/04/10 10:21:17;;;;;;;4.57;2.78;;;;;;;14.42;33.37;99722.16;4478846;31;34343;-76
2022/04/10 10:23:50;;;;;;;4.62;2.55;;;;;;;14.42;34.31;99710.28;4480574;31;34741;-75
2022/04/10 10:26:55;;;;;;;5.25;2.65;;;;;;;15.13;35.04;99713.00;4487027;31;34074;-76
2022/04/10 10:29:53;;;;;;;8.68;2.28;;;;;;;16.02;32.68;99710.97;4480370;31;33636;-75
2022/04/10 10:32:42;;;;;;;3.72;2.10;;;;;;;16.14;31.83;99711.78;4478127;31;34355;-76
2022/04/10 10:35:12;;;;;;;3.78;2.20;;;;;;;14.62;33.28;99713.63;4463116;31;32460;-77
2022/04/10 10:37:51;;;;;;;5.25;2.60;;;;;;;14.86;37.39;99708.16;4476279;31;33390;-77
2022/04/10 10:40:20;;;;;;;4.80;2.17;;;;;;;15.90;34.48;99706.53;4477744;31;34433;-77
2022/04/10 10:42:49;;;;;;;4.70;2.30;;;;;;;15.60;33.35;99698.41;4478094;31;35303;-77
2022/04/10 10:45:37;;;;;;;5.25;2.22;;;;;;;14.93;33.59;99722.72;4478905;31;33879;-81
2022/04/10 10:48:24;;;;;;;4.47;2.30;;;;;;;15.54;35.51;99710.41;4461762;31;31728;-80
2022/04/10 10:50:53;;;;;;;6.68;4.45;;;;;;;15.71;32.00;99698.38;4444048;31;31953;-80
2022/04/10 10:53:44;;;;;;;39.25;25.60;;;;;;;15.14;33.91;99708.31;4453680;31;33942;-81
2022/04/10 10:56:17;;;;;;;4.30;2.33;;;;;;;15.69;31.98;99706.06;4468812;31;34684;-80
2022/04/10 10:59:29;;;;;;;5.62;2.12;;;;;;;15.41;30.99;99709.56;4458893;31;33450;-80
2022/04/10 11:02:12;;;;;;;7.05;2.53;;;;;;;15.66;32.02;99697.41;4469095;31;34295;-81
2022/04/10 11:05:07;;;;;;;4.07;2.20;;;;;;;15.12;33.64;99716.00;4456512;31;32321;-79
2022/04/10 11:07:39;;;;;;;4.93;2.08;;;;;;;14.35;34.13;99713.09;4457226;31;34088;-79
2022/04/10 11:10:09;;;;;;;5.32;2.20;;;;;;;14.02;33.48;99701.66;4466244;31;31778;-80
2022/04/10 11:12:47;;;;;;;13.35;5.53;;;;;;;14.79;34.02;99705.50;4470547;32;32299;-80
2022/04/10 11:15:15;;;;;;;;;;;;;;;15.13;34.41;99706.63;4470611;32;32856;-81
2022/04/10 11:17:47;;;;;;;5.12;1.95;;;;;;;15.52;32.60;99710.63;4470466;32;32692;-81
2022/04/10 11:20:19;;;;;;;3.92;1.70;;;;;;;15.20;31.12;99707.38;4470837;32;33507;-80
2022/04/10 11:22:59;;;;;;;6.10;2.42;;;;;;;15.00;31.55;99701.31;4484047;32;33815;-80
2022/04/10 11:25:27;;;;;;;8.68;3.10;;;;;;;14.64;32.39;99696.81;4483516;32;34346;-79
2022/04/10 11:27:57;;;;;;;5.72;2.17;;;;;;;15.22;32.96;99693.31;4484578;31;33978;-81
2022/04/10 11:30:29;;;;;;;8.43;4.32;;;;;;;15.09;32.17;99706.28;4468977;31;31856;-81
2022/04/10 11:33:02;;;;;;;12.40;5.87;;;;;;;15.01;29.89;99717.66;4470669;31;31855;-80
2022/04/10 11:35:38;;;;;;;6.80;3.30;;;;;;;14.35;30.43;99706.75;4489245;31;34657;-80
2022/04/10 11:38:15;;;;;;;23.27;15.32;;;;;;;14.88;30.35;99697.72;4463918;32;32524;-79
2022/04/10 11:40:49;;;;;;;8.93;5.55;;;;;;;15.24;30.31;99697.53;4466696;31;34242;-81
2022/04/10 11:43:20;;;;;;;4.53;1.90;;;;;;;14.97;30.91;99696.28;4470269;31;33053;-82
2022/04/10 11:45:50;;;;;;;4.85;1.48;;;;;;;14.53;30.11;99698.44;4469661;31;34554;-81
2022/04/10 11:48:23;;;;;;;2.25;1.30;;;;;;;14.49;30.41;99695.31;4471786;31;32443;-81
2022/04/10 11:50:50;;;;;;;3.60;1.33;;;;;;;14.74;29.66;99716.41;4473441;31;32477;-80
2022/04/10 11:53:18;;;;;;;3.62;1.00;;;;;;;15.12;28.97;99697.50;4465844;31;33428;-80
2022/04/10 11:55:48;;;;;;;1.73;0.90;;;;;;;15.21;28.33;99708.22;4476948;31;34844;-81
2022/04/10 11:58:21;;;;;;;3.95;1.20;;;;;;;15.33;28.40;99725.66;4474582;31;32479;-80
2022/04/10 12:00:57;;;;;;;2.62;1.10;;;;;;;15.11;27.55;99692.22;4456989;32;32127;-80
2022/04/10 12:03:31;;;;;;;2.50;1.30;;;;;;;15.10;28.84;99710.72;4474298;31;34478;-80
2022/04/10 12:06:01;;;;;;;2.60;1.17;;;;;;;15.04;29.06;99695.09;4473421;31;32429;-80
2022/04/10 12:08:28;;;;;;;3.15;1.23;;;;;;;14.94;28.89;99710.59;4469299;31;33865;-79
2022/04/10 12:10:58;;;;;;;2.85;1.20;;;;;;;15.07;28.39;99724.16;4473782;31;33328;-79
2022/04/10 12:13:39;;;;;;;6.12;2.92;;;;;;;15.07;27.79;99708.44;4471990;31;32546;-79
2022/04/10 12:16:13;;;;;;;12.82;7.47;;;;;;;14.84;27.97;99678.00;4471127;31;33190;-79
2022/04/10 12:18:52;;;;;;;3.67;1.48;;;;;;;15.37;29.17;99691.75;4469598;31;34739;-79
2022/04/10 12:21:23;;;;;;;1.95;1.05;;;;;;;13.90;29.42;99696.06;4492849;31;33342;-80